sensor_id;sensor_type;location;lat;lon;timestamp;pressure;altitude;pressure_sealevel;temperature;humidity
43741;BME280;29352;48.708;9.290;2023-03-25T00:02:14;97282.97;;;1.92;81.33
43741;BME280;29352;48.708;9.290;2023-03-25T00:04:40;97289.19;;;2.36;83.76
43741;BME280;29352;48.708;9.290;2023-03-25T00:07:06;97312.91;;;2.36;82.89
43741;BME280;29352;48.708;9.290;2023-03-25T00:09:32;97340.13;;;0.96;89.65
43741;BME280;29352;48.708;9.290;2023-03-25T00:11:57;97319.00;;;0.65;90.64
43741;BME280;29352;48.708;9.290;2023-03-25T00:14:23;97301.28;;;0.67;88.62
43741;BME280;29352;48.708;9.290;2023-03-25T00:16:51;97310.84;;;0.35;89.80
43741;BME280;29352;48.708;9.290;2023-03-25T00:19:18;97276.22;;;0.40;89.78
43741;BME280;29352;48.708;9.290;2023-03-25T00:21:48;97271.16;;;0.22;88.61
43741;BME280;29352;48.708;9.290;2023-03-25T00:24:17;97272.25;;;1.93;83.64
43741;BME280;29352;48.708;9.290;2023-03-25T00:26:46;97258.00;;;0.38;85.27
43741;BME280;29352;48.708;9.290;2023-03-25T00:29:13;97264.06;;;0.14;86.92
43741;BME280;29352;48.708;9.290;2023-03-25T00:31:40;97271.28;;;0.04;87.22
43741;BME280;29352;48.708;9.290;2023-03-25T00:34:07;97283.28;;;-0.02;87.61
43741;BME280;29352;48.708;9.290;2023-03-25T00:36:34;97278.00;;;0.56;86.21
43741;BME280;29352;48.708;9.290;2023-03-25T00:39:06;97271.28;;;0.45;86.00
43741;BME280;29352;48.708;9.290;2023-03-25T00:41:33;97272.78;;;0.47;85.60
43741;BME280;29352;48.708;9.290;2023-03-25T00:44:02;97278.84;;;0.48;85.33
43741;BME280;29352;48.708;9.290;2023-03-25T00:46:31;97274.88;;;0.52;85.82
43741;BME280;29352;48.708;9.290;2023-03-25T00:48:59;97274.41;;;0.57;85.72
43741;BME280;29352;48.708;9.290;2023-03-25T00:51:27;97275.84;;;0.59;84.49
43741;BME280;29352;48.708;9.290;2023-03-25T00:53:57;97272.41;;;0.67;85.25
43741;BME280;29352;48.708;9.290;2023-03-25T00:56:28;97270.66;;;0.43;84.69
43741;BME280;29352;48.708;9.290;2023-03-25T00:58:55;97272.78;;;0.07;86.53
43741;BME280;29352;48.708;9.290;2023-03-25T01:01:24;97268.19;;;0.00;87.55
43741;BME280;29352;48.708;9.290;2023-03-25T01:03:58;97252.94;;;-0.04;87.19
43741;BME280;29352;48.708;9.290;2023-03-25T01:06:34;97249.97;;;0.07;87.72
43741;BME280;29352;48.708;9.290;2023-03-25T01:09:04;97244.22;;;0.20;86.28
43741;BME280;29352;48.708;9.290;2023-03-25T01:11:33;97244.72;;;0.23;86.14
43741;BME280;29352;48.708;9.290;2023-03-25T01:14:00;97242.91;;;0.40;84.67
43741;BME280;29352;48.708;9.290;2023-03-25T01:16:28;97249.78;;;0.25;85.13
43741;BME280;29352;48.708;9.290;2023-03-25T01:18:54;97245.53;;;0.08;85.67
43741;BME280;29352;48.708;9.290;2023-03-25T01:21:20;97249.97;;;0.23;86.05
43741;BME280;29352;48.708;9.290;2023-03-25T01:23:47;97264.25;;;-0.04;86.70
43741;BME280;29352;48.708;9.290;2023-03-25T01:26:13;97258.19;;;-0.20;87.35
43741;BME280;29352;48.708;9.290;2023-03-25T01:28:40;97256.38;;;-0.04;85.29
43741;BME280;29352;48.708;9.290;2023-03-25T01:31:09;97253.75;;;-0.04;85.86
43741;BME280;29352;48.708;9.290;2023-03-25T01:33:37;97254.41;;;-0.02;85.88
43741;BME280;29352;48.708;9.290;2023-03-25T01:36:04;97247.53;;;-0.19;86.62
43741;BME280;29352;48.708;9.290;2023-03-25T01:38:34;97231.78;;;-0.35;85.99
43741;BME280;29352;48.708;9.290;2023-03-25T01:41:02;97226.88;;;-0.38;86.18
43741;BME280;29352;48.708;9.290;2023-03-25T01:43:29;97238.38;;;-0.23;86.34
43741;BME280;29352;48.708;9.290;2023-03-25T01:45:56;97246.88;;;-0.21;86.60
43741;BME280;29352;48.708;9.290;2023-03-25T01:48:33;97248.34;;;-0.27;85.94
43741;BME280;29352;48.708;9.290;2023-03-25T01:51:17;97226.53;;;-0.27;86.96
43741;BME280;29352;48.708;9.290;2023-03-25T01:53:47;97227.53;;;-0.36;86.72
43741;BME280;29352;48.708;9.290;2023-03-25T01:56:19;97225.91;;;-0.29;86.47
43741;BME280;29352;48.708;9.290;2023-03-25T01:58:51;97227.84;;;-0.39;87.30
43741;BME280;29352;48.708;9.290;2023-03-25T02:01:18;97224.06;;;-0.45;87.68
43741;BME280;29352;48.708;9.290;2023-03-25T02:03:48;97217.34;;;-0.56;87.60
43741;BME280;29352;48.708;9.290;2023-03-25T02:06:32;97207.03;;;-0.57;87.95
43741;BME280;29352;48.708;9.290;2023-03-25T02:09:04;97213.41;;;-0.52;88.07
43741;BME280;29352;48.708;9.290;2023-03-25T02:11:34;97206.03;;;-0.48;87.52
43741;BME280;29352;48.708;9.290;2023-03-25T02:14:07;97207.69;;;-0.63;88.25
43741;BME280;29352;48.708;9.290;2023-03-25T02:17:02;97195.56;;;-0.56;88.24
43741;BME280;29352;48.708;9.290;2023-03-25T02:28:51;97211.94;;;-0.62;88.69
43741;BME280;29352;48.708;9.290;2023-03-25T02:32:04;97214.88;;;-0.41;88.11
43741;BME280;29352;48.708;9.290;2023-03-25T02:46:54;97217.09;;;1.00;84.94
43741;BME280;29352;48.708;9.290;2023-03-25T02:50:06;97245.22;;;-0.38;88.29
43741;BME280;29352;48.708;9.290;2023-03-25T02:52:43;97227.84;;;-0.39;88.22
43741;BME280;29352;48.708;9.290;2023-03-25T02:55:17;97244.91;;;-0.35;88.35
43741;BME280;29352;48.708;9.290;2023-03-25T02:57:49;97253.22;;;-0.48;88.17
43741;BME280;29352;48.708;9.290;2023-03-25T03:00:22;97256.53;;;-0.46;87.33
43741;BME280;29352;48.708;9.290;2023-03-25T03:03:02;97231.13;;;-0.54;85.97
43741;BME280;29352;48.708;9.290;2023-03-25T03:05:32;97240.28;;;-0.58;84.99
43741;BME280;29352;48.708;9.290;2023-03-25T03:23:49;97241.38;;;-0.85;81.35
43741;BME280;29352;48.708;9.290;2023-03-25T03:26:37;97251.66;;;-0.91;81.43
43741;BME280;29352;48.708;9.290;2023-03-25T03:29:34;97253.56;;;-1.10;81.47
43741;BME280;29352;48.708;9.290;2023-03-25T03:32:21;97267.59;;;-1.19;81.60
43741;BME280;29352;48.708;9.290;2023-03-25T03:35:01;97268.72;;;-1.22;81.91
43741;BME280;29352;48.708;9.290;2023-03-25T03:37:40;97266.00;;;-1.12;81.98
43741;BME280;29352;48.708;9.290;2023-03-25T03:40:16;97262.78;;;-1.32;82.24
43741;BME280;29352;48.708;9.290;2023-03-25T03:42:53;97263.47;;;-1.30;82.33
43741;BME280;29352;48.708;9.290;2023-03-25T03:45:46;97269.09;;;-1.51;83.31
43741;BME280;29352;48.708;9.290;2023-03-25T03:48:24;97277.66;;;-1.40;83.67
43741;BME280;29352;48.708;9.290;2023-03-25T03:51:00;97281.69;;;-1.46;83.81
43741;BME280;29352;48.708;9.290;2023-03-25T03:53:34;97271.25;;;-1.64;84.80
43741;BME280;29352;48.708;9.290;2023-03-25T03:56:13;97280.31;;;-1.58;85.09
43741;BME280;29352;48.708;9.290;2023-03-25T03:58:50;97278.59;;;-1.68;85.34
43741;BME280;29352;48.708;9.290;2023-03-25T04:01:41;97273.00;;;-1.55;85.52
43741;BME280;29352;48.708;9.290;2023-03-25T04:04:14;97291.91;;;-1.61;85.37
43741;BME280;29352;48.708;9.290;2023-03-25T04:06:56;97283.09;;;-1.60;86.36
43741;BME280;29352;48.708;9.290;2023-03-25T04:14:55;97280.47;;;-1.78;87.43
43741;BME280;29352;48.708;9.290;2023-03-25T04:17:22;97279.91;;;-1.63;87.96
43741;BME280;29352;48.708;9.290;2023-03-25T04:19:48;97274.47;;;-1.70;88.06
43741;BME280;29352;48.708;9.290;2023-03-25T04:22:19;97278.06;;;-1.71;88.57
43741;BME280;29352;48.708;9.290;2023-03-25T04:24:46;97281.50;;;-1.71;88.73
43741;BME280;29352;48.708;9.290;2023-03-25T04:27:16;97275.94;;;-1.76;88.69
43741;BME280;29352;48.708;9.290;2023-03-25T04:29:48;97278.41;;;-1.48;88.17
43741;BME280;29352;48.708;9.290;2023-03-25T04:32:15;97282.41;;;-1.62;88.48
43741;BME280;29352;48.708;9.290;2023-03-25T04:34:41;97285.75;;;-1.70;89.10
43741;BME280;29352;48.708;9.290;2023-03-25T04:37:07;97280.22;;;-1.67;89.09
43741;BME280;29352;48.708;9.290;2023-03-25T04:39:32;97282.25;;;-1.60;88.95
43741;BME280;29352;48.708;9.290;2023-03-25T04:41:58;97283.81;;;-1.50;87.85
43741;BME280;29352;48.708;9.290;2023-03-25T04:44:31;97286.44;;;-1.42;87.53
43741;BME280;29352;48.708;9.290;2023-03-25T04:47:05;97285.44;;;-1.49;87.55
43741;BME280;29352;48.708;9.290;2023-03-25T04:49:33;97288.16;;;-1.76;88.61
43741;BME280;29352;48.708;9.290;2023-03-25T04:51:59;97278.06;;;-1.53;88.22
43741;BME280;29352;48.708;9.290;2023-03-25T04:54:26;97288.34;;;-1.52;87.83
43741;BME280;29352;48.708;9.290;2023-03-25T04:56:52;97285.44;;;-1.49;87.48
43741;BME280;29352;48.708;9.290;2023-03-25T04:59:19;97290.97;;;-1.52;86.99
43741;BME280;29352;48.708;9.290;2023-03-25T05:01:49;97296.69;;;-1.56;87.37
43741;BME280;29352;48.708;9.290;2023-03-25T05:04:16;97295.09;;;-1.67;87.77
43741;BME280;29352;48.708;9.290;2023-03-25T05:06:45;97313.13;;;-1.64;88.12
43741;BME280;29352;48.708;9.290;2023-03-25T05:09:13;97312.69;;;-1.77;88.47
43741;BME280;29352;48.708;9.290;2023-03-25T05:11:41;97302.78;;;-1.92;88.90
43741;BME280;29352;48.708;9.290;2023-03-25T05:14:09;97307.97;;;-1.56;88.25
43741;BME280;29352;48.708;9.290;2023-03-25T05:16:36;97302.78;;;-1.92;88.24
43741;BME280;29352;48.708;9.290;2023-03-25T05:19:02;97296.72;;;-1.92;88.26
43741;BME280;29352;48.708;9.290;2023-03-25T05:21:32;97313.19;;;-2.00;88.70
43741;BME280;29352;48.708;9.290;2023-03-25T05:23:57;97319.94;;;-1.71;87.83
43741;BME280;29352;48.708;9.290;2023-03-25T05:26:25;97311.28;;;-1.72;88.13
43741;BME280;29352;48.708;9.290;2023-03-25T05:28:53;97314.00;;;-1.55;87.40
43741;BME280;29352;48.708;9.290;2023-03-25T05:31:23;97319.16;;;-1.20;86.81
43741;BME280;29352;48.708;9.290;2023-03-25T05:33:48;97319.75;;;-1.34;87.13
43741;BME280;29352;48.708;9.290;2023-03-25T05:36:15;97339.91;;;-1.26;86.67
43741;BME280;29352;48.708;9.290;2023-03-25T05:38:41;97336.09;;;-1.06;85.99
43741;BME280;29352;48.708;9.290;2023-03-25T05:41:16;97331.88;;;-1.25;86.75
43741;BME280;29352;48.708;9.290;2023-03-25T05:43:43;97333.88;;;-1.19;85.92
43741;BME280;29352;48.708;9.290;2023-03-25T05:46:12;97319.31;;;-0.87;85.38
43741;BME280;29352;48.708;9.290;2023-03-25T05:48:39;97317.25;;;-0.59;84.73
43741;BME280;29352;48.708;9.290;2023-03-25T05:51:11;97309.28;;;-0.41;82.97
43741;BME280;29352;48.708;9.290;2023-03-25T05:53:43;97320.34;;;-0.05;82.15
43741;BME280;29352;48.708;9.290;2023-03-25T05:56:13;97318.63;;;-0.47;83.00
43741;BME280;29352;48.708;9.290;2023-03-25T05:58:42;97318.22;;;0.15;81.96
43741;BME280;29352;48.708;9.290;2023-03-25T06:01:11;97330.03;;;-0.64;84.28
43741;BME280;29352;48.708;9.290;2023-03-25T06:03:39;97336.34;;;-0.83;84.79
43741;BME280;29352;48.708;9.290;2023-03-25T06:06:06;97340.75;;;-0.83;87.20
43741;BME280;29352;48.708;9.290;2023-03-25T06:08:41;97333.91;;;-0.84;85.39
43741;BME280;29352;48.708;9.290;2023-03-25T06:11:08;97329.63;;;-0.85;85.83
43741;BME280;29352;48.708;9.290;2023-03-25T06:13:35;97341.97;;;-1.04;85.44
43741;BME280;29352;48.708;9.290;2023-03-25T06:16:05;97343.75;;;-0.78;86.32
43741;BME280;29352;48.708;9.290;2023-03-25T06:18:33;97341.53;;;-0.57;86.06
43741;BME280;29352;48.708;9.290;2023-03-25T06:21:02;97342.19;;;-0.55;85.11
43741;BME280;29352;48.708;9.290;2023-03-25T06:23:28;97346.19;;;-0.77;84.97
43741;BME280;29352;48.708;9.290;2023-03-25T06:25:55;97347.88;;;-0.67;84.54
43741;BME280;29352;48.708;9.290;2023-03-25T06:28:22;97354.44;;;-0.63;84.64
43741;BME280;29352;48.708;9.290;2023-03-25T06:30:48;97346.66;;;-0.39;82.81
43741;BME280;29352;48.708;9.290;2023-03-25T06:33:15;97343.28;;;-0.23;82.25
43741;BME280;29352;48.708;9.290;2023-03-25T06:35:46;97346.53;;;-0.29;81.76
43741;BME280;29352;48.708;9.290;2023-03-25T06:38:19;97344.75;;;-0.04;80.67
43741;BME280;29352;48.708;9.290;2023-03-25T06:40:48;97341.16;;;0.21;80.50
43741;BME280;29352;48.708;9.290;2023-03-25T06:43:14;97344.78;;;0.20;79.99
43741;BME280;29352;48.708;9.290;2023-03-25T06:45:40;97343.13;;;0.68;78.94
43741;BME280;29352;48.708;9.290;2023-03-25T06:48:06;97339.56;;;1.17;75.80
43741;BME280;29352;48.708;9.290;2023-03-25T06:50:32;97329.88;;;2.11;72.91
43741;BME280;29352;48.708;9.290;2023-03-25T06:52:58;97340.00;;;1.99;72.87
43741;BME280;29352;48.708;9.290;2023-03-25T06:55:23;97334.91;;;1.98;73.76
43741;BME280;29352;48.708;9.290;2023-03-25T06:57:53;97337.25;;;2.53;70.49
43741;BME280;29352;48.708;9.290;2023-03-25T07:00:20;97337.06;;;2.17;71.35
43741;BME280;29352;48.708;9.290;2023-03-25T07:02:48;97337.88;;;2.18;72.14
43741;BME280;29352;48.708;9.290;2023-03-25T07:05:13;97343.56;;;1.75;73.31
43741;BME280;29352;48.708;9.290;2023-03-25T07:07:39;97345.13;;;1.61;73.79
43741;BME280;29352;48.708;9.290;2023-03-25T07:10:05;97348.66;;;1.46;74.35
43741;BME280;29352;48.708;9.290;2023-03-25T07:12:33;97353.63;;;1.40;75.03
43741;BME280;29352;48.708;9.290;2023-03-25T07:14:59;97353.66;;;1.24;75.08
43741;BME280;29352;48.708;9.290;2023-03-25T07:17:25;97351.72;;;1.18;75.55
43741;BME280;29352;48.708;9.290;2023-03-25T07:19:51;97356.38;;;1.00;76.04
43741;BME280;29352;48.708;9.290;2023-03-25T07:22:17;97349.63;;;1.05;75.79
43741;BME280;29352;48.708;9.290;2023-03-25T07:24:43;97349.47;;;1.07;75.04
43741;BME280;29352;48.708;9.290;2023-03-25T07:27:12;97346.06;;;0.82;75.27
43741;BME280;29352;48.708;9.290;2023-03-25T07:29:39;97348.19;;;0.94;75.85
43741;BME280;29352;48.708;9.290;2023-03-25T07:32:05;97340.19;;;1.27;75.06
43741;BME280;29352;48.708;9.290;2023-03-25T07:34:31;97343.50;;;1.83;73.74
43741;BME280;29352;48.708;9.290;2023-03-25T07:36:57;97342.63;;;2.22;72.70
43741;BME280;29352;48.708;9.290;2023-03-25T07:39:23;97343.50;;;2.75;71.26
43741;BME280;29352;48.708;9.290;2023-03-25T07:41:53;97352.94;;;2.84;70.31
43741;BME280;29352;48.708;9.290;2023-03-25T07:44:19;97340.56;;;3.59;68.19
43741;BME280;29352;48.708;9.290;2023-03-25T07:46:46;97336.03;;;3.53;66.71
43741;BME280;29352;48.708;9.290;2023-03-25T07:49:14;97348.44;;;4.10;65.29
43741;BME280;29352;48.708;9.290;2023-03-25T07:51:40;97329.19;;;5.29;62.72
43741;BME280;29352;48.708;9.290;2023-03-25T07:54:06;97335.22;;;6.58;60.65
43741;BME280;29352;48.708;9.290;2023-03-25T07:56:32;97320.81;;;7.91;57.53
43741;BME280;29352;48.708;9.290;2023-03-25T07:58:57;97317.31;;;9.40;55.15
43741;BME280;29352;48.708;9.290;2023-03-25T08:01:23;97331.94;;;9.13;54.51
43741;BME280;29352;48.708;9.290;2023-03-25T08:03:48;97327.50;;;8.00;55.95
43741;BME280;29352;48.708;9.290;2023-03-25T08:06:14;97325.41;;;7.70;56.36
43741;BME280;29352;48.708;9.290;2023-03-25T08:08:39;97322.59;;;7.58;57.44
43741;BME280;29352;48.708;9.290;2023-03-25T08:11:06;97336.25;;;6.37;59.12
43741;BME280;29352;48.708;9.290;2023-03-25T08:13:32;97327.44;;;5.97;60.56
43741;BME280;29352;48.708;9.290;2023-03-25T08:15:57;97319.34;;;6.25;60.12
43741;BME280;29352;48.708;9.290;2023-03-25T08:18:24;97328.41;;;5.76;60.51
43741;BME280;29352;48.708;9.290;2023-03-25T08:20:50;97339.72;;;5.63;60.61
43741;BME280;29352;48.708;9.290;2023-03-25T08:23:17;97338.97;;;5.69;61.78
43741;BME280;29352;48.708;9.290;2023-03-25T08:25:46;97316.44;;;5.39;61.56
43741;BME280;29352;48.708;9.290;2023-03-25T08:28:17;97339.50;;;4.33;63.73
43741;BME280;29352;48.708;9.290;2023-03-25T08:30:50;97328.91;;;4.76;62.75
43741;BME280;29352;48.708;9.290;2023-03-25T08:33:20;97335.78;;;5.05;62.76
43741;BME280;29352;48.708;9.290;2023-03-25T08:35:47;97344.59;;;4.34;64.20
43741;BME280;29352;48.708;9.290;2023-03-25T08:38:15;97346.16;;;4.07;66.26
43741;BME280;29352;48.708;9.290;2023-03-25T08:40:42;97355.09;;;3.34;71.66
43741;BME280;29352;48.708;9.290;2023-03-25T08:43:07;97347.75;;;2.91;73.39
43741;BME280;29352;48.708;9.290;2023-03-25T08:45:34;97358.19;;;2.09;76.24
43741;BME280;29352;48.708;9.290;2023-03-25T08:48:01;97363.63;;;1.76;78.11
43741;BME280;29352;48.708;9.290;2023-03-25T08:50:29;97361.25;;;1.19;79.09
43741;BME280;29352;48.708;9.290;2023-03-25T08:52:56;97362.16;;;0.95;80.44
43741;BME280;29352;48.708;9.290;2023-03-25T08:55:23;97360.78;;;1.15;82.12
43741;BME280;29352;48.708;9.290;2023-03-25T08:57:48;97351.09;;;1.86;83.95
43741;BME280;29352;48.708;9.290;2023-03-25T09:00:14;97350.66;;;2.06;83.12
43741;BME280;29352;48.708;9.290;2023-03-25T09:02:42;97345.44;;;2.21;83.08
43741;BME280;29352;48.708;9.290;2023-03-25T09:05:09;97348.72;;;2.23;82.33
43741;BME280;29352;48.708;9.290;2023-03-25T09:07:36;97340.38;;;1.57;80.46
43741;BME280;29352;48.708;9.290;2023-03-25T09:10:03;97337.19;;;1.38;80.09
43741;BME280;29352;48.708;9.290;2023-03-25T09:12:29;97335.34;;;1.00;82.46
43741;BME280;29352;48.708;9.290;2023-03-25T09:14:55;97335.03;;;1.03;84.12
43741;BME280;29352;48.708;9.290;2023-03-25T09:17:20;97326.69;;;1.30;82.87
43741;BME280;29352;48.708;9.290;2023-03-25T09:19:46;97324.97;;;1.46;82.31
43741;BME280;29352;48.708;9.290;2023-03-25T09:22:12;97342.16;;;1.25;83.05
43741;BME280;29352;48.708;9.290;2023-03-25T09:24:38;97339.19;;;1.36;84.36
43741;BME280;29352;48.708;9.290;2023-03-25T09:27:05;97333.19;;;1.51;83.40
43741;BME280;29352;48.708;9.290;2023-03-25T09:29:31;97328.06;;;2.11;83.05
43741;BME280;29352;48.708;9.290;2023-03-25T09:31:56;97328.72;;;2.13;84.28
43741;BME280;29352;48.708;9.290;2023-03-25T09:34:24;97320.72;;;2.22;83.42
43741;BME280;29352;48.708;9.290;2023-03-25T09:36:51;97323.03;;;2.40;82.68
43741;BME280;29352;48.708;9.290;2023-03-25T09:39:17;97321.41;;;2.38;83.01
43741;BME280;29352;48.708;9.290;2023-03-25T09:42:12;97322.56;;;2.59;83.97
43741;BME280;29352;48.708;9.290;2023-03-25T09:50:53;97313.59;;;2.68;81.69
43741;BME280;29352;48.708;9.290;2023-03-25T09:55:50;97312.25;;;3.31;80.26
43741;BME280;29352;48.708;9.290;2023-03-25T10:01:01;97314.00;;;2.57;80.32
43741;BME280;29352;48.708;9.290;2023-03-25T10:06:57;97296.56;;;3.15;79.15
43741;BME280;29352;48.708;9.290;2023-03-25T10:12:54;97290.69;;;5.19;72.79
43741;BME280;29352;48.708;9.290;2023-03-25T10:18:54;97289.72;;;7.01;67.31
43741;BME280;29352;48.708;9.290;2023-03-25T10:22:16;97291.41;;;6.43;67.69
43741;BME280;29352;48.708;9.290;2023-03-25T10:27:39;97277.47;;;6.94;62.95
43741;BME280;29352;48.708;9.290;2023-03-25T10:30:20;97269.88;;;7.62;61.64
43741;BME280;29352;48.708;9.290;2023-03-25T10:35:30;97275.97;;;8.33;60.77
43741;BME280;29352;48.708;9.290;2023-03-25T10:38:22;97266.47;;;8.43;59.52
43741;BME280;29352;48.708;9.290;2023-03-25T10:41:21;97266.44;;;9.30;58.81
43741;BME280;29352;48.708;9.290;2023-03-25T10:43:51;97286.56;;;9.26;57.52
43741;BME280;29352;48.708;9.290;2023-03-25T10:46:27;97274.63;;;8.67;56.14
43741;BME280;29352;48.708;9.290;2023-03-25T10:48:58;97277.06;;;8.93;54.38
43741;BME280;29352;48.708;9.290;2023-03-25T10:51:31;97268.03;;;8.76;56.10
43741;BME280;29352;48.708;9.290;2023-03-25T10:54:00;97263.59;;;8.45;56.13
43741;BME280;29352;48.708;9.290;2023-03-25T10:56:55;97272.78;;;8.74;56.37
43741;BME280;29352;48.708;9.290;2023-03-25T10:59:43;97266.63;;;7.60;58.15
43741;BME280;29352;48.708;9.290;2023-03-25T11:02:27;97268.97;;;7.37;58.98
43741;BME280;29352;48.708;9.290;2023-03-25T11:05:01;97270.47;;;7.19;59.27
43741;BME280;29352;48.708;9.290;2023-03-25T11:07:36;97259.94;;;6.93;58.83
43741;BME280;29352;48.708;9.290;2023-03-25T11:10:21;97273.44;;;6.31;60.78
43741;BME280;29352;48.708;9.290;2023-03-25T11:12:51;97266.94;;;6.07;63.99
43741;BME280;29352;48.708;9.290;2023-03-25T11:15:24;97289.09;;;5.25;66.04
43741;BME280;29352;48.708;9.290;2023-03-25T11:18:02;97300.44;;;4.78;67.55
43741;BME280;29352;48.708;9.290;2023-03-25T11:20:58;97277.44;;;5.13;65.29
43741;BME280;29352;48.708;9.290;2023-03-25T11:23:34;97272.78;;;5.83;63.53
43741;BME280;29352;48.708;9.290;2023-03-25T11:26:13;97271.69;;;7.23;61.61
43741;BME280;29352;48.708;9.290;2023-03-25T11:28:50;97264.09;;;7.72;59.34
43741;BME280;29352;48.708;9.290;2023-03-25T11:31:21;97262.31;;;7.59;58.10
43741;BME280;29352;48.708;9.290;2023-03-25T11:36:34;97239.72;;;8.13;56.41
43741;BME280;29352;48.708;9.290;2023-03-25T11:39:14;97241.94;;;8.41;56.87
43741;BME280;29352;48.708;9.290;2023-03-25T11:41:44;97242.63;;;8.55;57.06
43741;BME280;29352;48.708;9.290;2023-03-25T11:46:57;97257.13;;;6.61;59.94
43741;BME280;29352;48.708;9.290;2023-03-25T11:49:29;97266.81;;;5.61;62.30
43741;BME280;29352;48.708;9.290;2023-03-25T11:54:43;97260.09;;;5.58;62.48
43741;BME280;29352;48.708;9.290;2023-03-25T11:57:14;97266.22;;;5.59;62.83
43741;BME280;29352;48.708;9.290;2023-03-25T11:59:47;97258.75;;;6.55;61.37
43741;BME280;29352;48.708;9.290;2023-03-25T12:02:35;97256.72;;;6.84;61.72
43741;BME280;29352;48.708;9.290;2023-03-25T12:07:46;97258.41;;;7.68;61.25
43741;BME280;29352;48.708;9.290;2023-03-25T12:10:19;97255.44;;;8.15;59.18
43741;BME280;29352;48.708;9.290;2023-03-25T12:13:06;97252.63;;;8.10;59.18
43741;BME280;29352;48.708;9.290;2023-03-25T12:18:33;97241.91;;;8.91;57.53
43741;BME280;29352;48.708;9.290;2023-03-25T12:30:33;97247.34;;;8.78;52.69
43741;BME280;29352;48.708;9.290;2023-03-25T12:32:52;97246.19;;;8.74;51.51
43741;BME280;29352;48.708;9.290;2023-03-25T12:41:45;97261.16;;;8.43;52.04
43741;BME280;29352;48.708;9.290;2023-03-25T12:47:37;97230.84;;;8.26;52.74
43741;BME280;29352;48.708;9.290;2023-03-25T12:56:43;97306.88;;;5.44;59.63
43741;BME280;29352;48.708;9.290;2023-03-25T13:07:41;97302.91;;;4.08;67.85
43741;BME280;29352;48.708;9.290;2023-03-25T13:10:24;97292.09;;;3.82;72.07
43741;BME280;29352;48.708;9.290;2023-03-25T13:12:58;97302.06;;;4.50;70.72
43741;BME280;29352;48.708;9.290;2023-03-25T13:15:44;97301.25;;;4.78;71.64
43741;BME280;29352;48.708;9.290;2023-03-25T13:19:02;97282.22;;;4.96;70.94
43741;BME280;29352;48.708;9.290;2023-03-25T13:21:41;97285.75;;;5.58;69.42
43741;BME280;29352;48.708;9.290;2023-03-25T13:24:44;97283.19;;;5.30;66.04
43741;BME280;29352;48.708;9.290;2023-03-25T13:27:09;97281.13;;;5.66;65.00
43741;BME280;29352;48.708;9.290;2023-03-25T13:30:04;97290.13;;;5.92;63.49
43741;BME280;29352;48.708;9.290;2023-03-25T13:32:44;97292.81;;;6.58;62.70
43741;BME280;29352;48.708;9.290;2023-03-25T13:36:24;97272.59;;;5.84;60.06
43741;BME280;29352;48.708;9.290;2023-03-25T13:38:52;97289.22;;;5.65;59.67
43741;BME280;29352;48.708;9.290;2023-03-25T13:41:29;97286.28;;;5.95;58.29
43741;BME280;29352;48.708;9.290;2023-03-25T13:44:03;97270.97;;;5.77;56.81
43741;BME280;29352;48.708;9.290;2023-03-25T13:51:51;97279.56;;;6.05;58.36
43741;BME280;29352;48.708;9.290;2023-03-25T13:54:44;97279.97;;;6.15;57.41
43741;BME280;29352;48.708;9.290;2023-03-25T14:14:55;97279.19;;;6.28;54.49
43741;BME280;29352;48.708;9.290;2023-03-25T14:17:28;97267.34;;;5.98;54.42
43741;BME280;29352;48.708;9.290;2023-03-25T14:19:58;97281.84;;;6.35;55.21
43741;BME280;29352;48.708;9.290;2023-03-25T14:22:30;97290.19;;;6.19;55.48
43741;BME280;29352;48.708;9.290;2023-03-25T14:25:04;97299.94;;;6.05;57.87
43741;BME280;29352;48.708;9.290;2023-03-25T14:27:34;97304.44;;;5.43;60.38
43741;BME280;29352;48.708;9.290;2023-03-25T14:30:23;97299.53;;;5.40;64.07
43741;BME280;29352;48.708;9.290;2023-03-25T14:32:54;97288.75;;;5.48;64.87
43741;BME280;29352;48.708;9.290;2023-03-25T14:43:24;97267.09;;;5.92;60.49
43741;BME280;29352;48.708;9.290;2023-03-25T14:48:42;97257.50;;;5.72;61.01
43741;BME280;29352;48.708;9.290;2023-03-25T14:57:08;97264.09;;;6.22;57.02
43741;BME280;29352;48.708;9.290;2023-03-25T14:59:54;97260.00;;;6.26;56.33
43741;BME280;29352;48.708;9.290;2023-03-25T15:02:31;97246.97;;;6.25;55.37
43741;BME280;29352;48.708;9.290;2023-03-25T15:04:58;97239.03;;;6.11;55.38
43741;BME280;29352;48.708;9.290;2023-03-25T15:10:06;97259.16;;;5.86;54.90
43741;BME280;29352;48.708;9.290;2023-03-25T15:12:37;97245.31;;;5.84;54.26
43741;BME280;29352;48.708;9.290;2023-03-25T15:15:28;97253.03;;;5.85;54.89
43741;BME280;29352;48.708;9.290;2023-03-25T15:21:11;97257.13;;;6.34;54.45
43741;BME280;29352;48.708;9.290;2023-03-25T15:23:51;97249.22;;;6.21;53.33
43741;BME280;29352;48.708;9.290;2023-03-25T15:26:39;97259.59;;;6.09;54.34
43741;BME280;29352;48.708;9.290;2023-03-25T15:32:24;97257.34;;;6.46;54.68
43741;BME280;29352;48.708;9.290;2023-03-25T15:35:35;97255.09;;;6.36;54.76
43741;BME280;29352;48.708;9.290;2023-03-25T15:38:18;97257.09;;;5.75;55.38
43741;BME280;29352;48.708;9.290;2023-03-25T15:44:28;97251.75;;;5.61;56.20
43741;BME280;29352;48.708;9.290;2023-03-25T15:47:38;97261.13;;;5.09;56.82
43741;BME280;29352;48.708;9.290;2023-03-25T15:50:43;97248.47;;;4.98;55.37
43741;BME280;29352;48.708;9.290;2023-03-25T15:54:26;97259.31;;;5.10;56.50
43741;BME280;29352;48.708;9.290;2023-03-25T15:56:46;97266.91;;;4.85;56.92
43741;BME280;29352;48.708;9.290;2023-03-25T16:01:46;97268.41;;;4.38;59.33
43741;BME280;29352;48.708;9.290;2023-03-25T16:04:30;97274.47;;;4.32;59.48
43741;BME280;29352;48.708;9.290;2023-03-25T16:07:05;97280.38;;;4.12;59.88
43741;BME280;29352;48.708;9.290;2023-03-25T16:09:39;97262.66;;;4.27;60.38
43741;BME280;29352;48.708;9.290;2023-03-25T16:12:10;97274.69;;;4.37;60.84
43741;BME280;29352;48.708;9.290;2023-03-25T16:14:42;97269.84;;;4.40;60.96
43741;BME280;29352;48.708;9.290;2023-03-25T16:17:11;97278.69;;;4.04;60.57
43741;BME280;29352;48.708;9.290;2023-03-25T16:19:40;97276.75;;;4.13;60.44
43741;BME280;29352;48.708;9.290;2023-03-25T16:22:16;97290.72;;;4.07;60.28
43741;BME280;29352;48.708;9.290;2023-03-25T16:24:45;97284.28;;;4.16;60.35
43741;BME280;29352;48.708;9.290;2023-03-25T16:27:25;97281.84;;;3.93;60.58
43741;BME280;29352;48.708;9.290;2023-03-25T16:29:55;97271.72;;;3.97;59.71